createdAt,value
2022-08-25T00:00:14.082Z,23.91
2022-08-25T00:02:41.763Z,23.84
2022-08-25T00:05:22.405Z,23.83
2022-08-25T00:07:49.451Z,23.80
2022-08-25T00:10:16.450Z,23.84
2022-08-25T00:12:43.419Z,23.80
2022-08-25T00:15:11.181Z,23.74
2022-08-25T00:17:38.212Z,23.68
2022-08-25T00:20:09.460Z,23.68
2022-08-25T00:22:36.612Z,23.65
2022-08-25T00:25:04.322Z,23.67
2022-08-25T00:27:31.326Z,23.66
2022-08-25T00:29:58.480Z,23.59
2022-08-25T00:32:25.647Z,23.52
2022-08-25T00:34:53.296Z,23.47
2022-08-25T00:37:20.338Z,23.47
2022-08-25T00:39:47.399Z,23.49
2022-08-25T00:42:16.243Z,23.44
2022-08-25T00:44:44.036Z,23.43
2022-08-25T00:47:11.529Z,23.39
2022-08-25T00:49:44.824Z,23.37
2022-08-25T00:52:22.044Z,23.29
2022-08-25T00:55:15.653Z,23.31
2022-08-25T00:57:57.807Z,23.30
2022-08-25T01:00:42.154Z,23.37
2022-08-25T01:03:10.020Z,23.36
2022-08-25T01:05:38.135Z,23.31
2022-08-25T01:08:07.032Z,23.30
2022-08-25T01:10:37.144Z,23.30
2022-08-25T01:13:19.454Z,23.28
2022-08-25T01:15:49.624Z,23.24
2022-08-25T01:18:16.931Z,23.22
2022-08-25T01:20:43.982Z,23.15
2022-08-25T01:23:11.016Z,23.07
2022-08-25T01:26:09.888Z,23.08
2022-08-25T01:28:38.208Z,23.05
2022-08-25T01:31:24.060Z,23.09
2022-08-25T01:33:51.615Z,23.06
2022-08-25T01:36:21.290Z,23.09
2022-08-25T01:38:48.880Z,23.05
2022-08-25T01:41:51.320Z,23.07
2022-08-25T01:44:19.270Z,22.93
2022-08-25T01:46:46.445Z,22.89
2022-08-25T01:49:13.411Z,22.86
2022-08-25T01:52:06.349Z,22.88
2022-08-25T01:54:33.560Z,22.88
2022-08-25T01:57:00.637Z,22.84
2022-08-25T01:59:27.880Z,22.79
2022-08-25T02:01:59.979Z,22.80
2022-08-25T02:04:32.362Z,22.74
2022-08-25T02:07:01.966Z,22.79
2022-08-25T02:09:29.505Z,22.72
2022-08-25T02:11:56.920Z,22.65
2022-08-25T02:14:24.322Z,22.61
2022-08-25T02:16:53.752Z,22.63
2022-08-25T02:19:24.395Z,22.59
2022-08-25T02:21:51.949Z,22.51
2022-08-25T02:24:19.112Z,22.49
2022-08-25T02:26:46.156Z,22.44
2022-08-25T02:29:13.892Z,22.41
2022-08-25T02:31:41.095Z,22.43
2022-08-25T02:34:10.110Z,22.35
2022-08-25T02:36:39.279Z,22.35
2022-08-25T02:39:09.232Z,22.32
2022-08-25T02:41:36.937Z,22.26
2022-08-25T02:44:05.206Z,22.24
2022-08-25T02:46:33.034Z,22.24
2022-08-25T02:49:00.724Z,22.23
2022-08-25T02:51:32.090Z,22.20
2022-08-25T02:54:02.187Z,22.15
2022-08-25T02:56:31.431Z,22.11
2022-08-25T02:59:00.287Z,22.10
2022-08-25T03:01:29.248Z,22.09
2022-08-25T03:03:57.297Z,22.16
2022-08-25T03:06:25.306Z,22.11
2022-08-25T03:08:53.345Z,22.13
2022-08-25T03:11:21.764Z,22.12
2022-08-25T03:13:51.091Z,22.14
2022-08-25T03:16:18.775Z,22.13
2022-08-25T03:18:46.245Z,22.11
2022-08-25T03:21:13.460Z,22.17
2022-08-25T03:23:44.316Z,22.12
2022-08-25T03:26:30.245Z,22.06
2022-08-25T03:28:57.904Z,22.00
2022-08-25T03:31:27.771Z,22.01
2022-08-25T03:33:55.384Z,22.07
2022-08-25T03:36:22.631Z,21.95
2022-08-25T03:38:49.907Z,21.93
2022-08-25T03:41:24.327Z,21.89
2022-08-25T03:43:56.403Z,21.85
2022-08-25T03:46:40.657Z,21.79
2022-08-25T03:49:12.029Z,21.76
2022-08-25T03:51:48.720Z,21.68
2022-08-25T03:54:20.084Z,21.72
2022-08-25T03:56:47.441Z,21.69
2022-08-25T03:59:14.558Z,21.67
2022-08-25T04:01:45.557Z,21.62
2022-08-25T04:04:14.964Z,21.80
2022-08-25T04:06:43.976Z,21.82
2022-08-25T04:09:11.792Z,21.86
2022-08-25T04:11:39.656Z,21.88
2022-08-25T04:14:10.337Z,21.95
2022-08-25T04:16:44.227Z,21.96
2022-08-25T04:19:11.604Z,21.94
2022-08-25T04:21:40.760Z,21.96
2022-08-25T04:24:11.034Z,21.94
2022-08-25T04:26:48.025Z,21.86
2022-08-25T04:29:19.133Z,21.78
2022-08-25T04:31:50.903Z,21.83
2022-08-25T04:34:29.809Z,21.79
2022-08-25T04:37:05.491Z,21.82
2022-08-25T04:39:35.245Z,21.87
2022-08-25T04:42:03.306Z,21.83
2022-08-25T04:44:31.989Z,21.77
2022-08-25T04:47:00.231Z,21.76
2022-08-25T04:49:28.757Z,21.76
2022-08-25T04:51:57.507Z,21.71
2022-08-25T04:54:24.749Z,21.73
2022-08-25T04:56:54.585Z,21.67
2022-08-25T04:59:30.114Z,21.68
2022-08-25T05:02:02.531Z,21.66
2022-08-25T05:04:30.293Z,21.66
2022-08-25T05:06:58.136Z,21.64
2022-08-25T05:09:26.399Z,21.57
2022-08-25T05:11:54.742Z,21.62
2022-08-25T05:14:26.264Z,21.65
2022-08-25T05:16:55.588Z,21.64
2022-08-25T05:19:24.332Z,21.66
2022-08-25T05:21:52.278Z,21.65
2022-08-25T05:24:20.444Z,21.64
2022-08-25T05:26:47.794Z,21.64
2022-08-25T05:29:15.697Z,21.66
2022-08-25T05:31:48.296Z,21.89
2022-08-25T05:34:19.057Z,23.95
2022-08-25T05:36:46.940Z,24.71
2022-08-25T05:39:14.673Z,25.20
2022-08-25T05:41:41.711Z,25.53
2022-08-25T05:44:08.866Z,25.77
2022-08-25T05:46:35.864Z,25.95
2022-08-25T05:49:02.909Z,26.11
2022-08-25T05:51:30.126Z,26.22
2022-08-25T05:53:57.215Z,26.31
2022-08-25T05:56:24.253Z,26.42
2022-08-25T05:58:51.386Z,26.49
2022-08-25T06:01:47.526Z,26.57
2022-08-25T06:04:17.977Z,26.63
2022-08-25T06:06:45.004Z,26.68
2022-08-25T06:09:12.843Z,26.71
2022-08-25T06:11:41.375Z,26.76
2022-08-25T06:14:10.051Z,26.82
2022-08-25T06:16:39.035Z,26.85
2022-08-25T06:19:08.397Z,26.89
2022-08-25T06:21:37.375Z,26.92
2022-08-25T06:24:05.067Z,26.94
2022-08-25T06:26:32.074Z,26.96
2022-08-25T06:28:59.089Z,26.99
2022-08-25T06:31:26.483Z,27.02
2022-08-25T06:33:53.655Z,27.03
2022-08-25T06:36:21.168Z,27.02
2022-08-25T06:38:48.660Z,27.02
2022-08-25T06:41:16.739Z,27.04
2022-08-25T06:43:49.064Z,27.05
2022-08-25T06:46:31.730Z,27.06
2022-08-25T06:49:06.791Z,27.07
2022-08-25T06:51:37.454Z,27.09
2022-08-25T06:54:07.533Z,27.09
2022-08-25T06:56:35.964Z,27.13
2022-08-25T06:59:05.700Z,27.13
2022-08-25T07:01:33.870Z,27.14
2022-08-25T07:04:07.569Z,27.14
2022-08-25T07:06:37.751Z,27.15
2022-08-25T07:09:07.489Z,27.15
2022-08-25T07:11:35.449Z,27.16
2022-08-25T07:14:05.670Z,27.17
2022-08-25T07:16:33.252Z,27.19
2022-08-25T07:19:01.921Z,27.24
2022-08-25T07:21:33.654Z,27.21
2022-08-25T07:24:07.933Z,27.21
2022-08-25T07:26:38.219Z,27.20
2022-08-25T07:29:32.882Z,27.23
2022-08-25T07:32:04.902Z,27.22
2022-08-25T07:34:52.482Z,27.22
2022-08-25T07:40:17.920Z,27.26
2022-08-25T07:42:45.520Z,27.26
2022-08-25T07:45:17.319Z,27.29
2022-08-25T07:47:48.521Z,27.29
2022-08-25T07:50:20.040Z,27.30
2022-08-25T07:52:53.918Z,27.34
2022-08-25T07:55:27.364Z,27.35
2022-08-25T07:57:57.284Z,27.36
2022-08-25T08:00:28.009Z,27.36
2022-08-25T08:02:55.502Z,27.35
2022-08-25T08:05:23.978Z,27.43
2022-08-25T08:07:53.169Z,27.45
2022-08-25T08:13:10.182Z,27.47
2022-08-25T08:15:37.984Z,27.51
2022-08-25T08:18:07.237Z,27.53
2022-08-25T08:20:42.489Z,27.57
2022-08-25T08:23:11.731Z,27.57
2022-08-25T08:25:38.784Z,27.65
2022-08-25T08:28:07.133Z,27.66
2022-08-25T08:30:36.618Z,27.72
2022-08-25T08:33:10.215Z,27.78
2022-08-25T08:35:43.060Z,27.70
2022-08-25T08:38:17.400Z,27.77
2022-08-25T08:41:23.010Z,27.71
2022-08-25T08:44:00.682Z,27.69
2022-08-25T08:46:53.798Z,27.70
2022-08-25T08:50:07.651Z,27.74
2022-08-25T08:53:06.743Z,27.70
2022-08-25T08:55:52.656Z,27.71
2022-08-25T08:58:49.802Z,27.69
2022-08-25T09:02:06.093Z,27.67
2022-08-25T09:04:58.266Z,27.69
2022-08-25T09:07:36.567Z,27.70
2022-08-25T09:10:10.307Z,27.72
2022-08-25T09:12:52.119Z,27.76
2022-08-25T09:16:34.446Z,27.76
2022-08-25T09:19:52.341Z,27.78
2022-08-25T09:22:43.762Z,27.68
2022-08-25T09:25:52.611Z,27.74
2022-08-25T09:28:43.091Z,27.72
2022-08-25T09:31:24.277Z,27.68
2022-08-25T09:34:00.009Z,27.71
2022-08-25T09:36:27.569Z,27.75
2022-08-25T09:38:54.625Z,27.83
2022-08-25T09:41:40.468Z,27.92
2022-08-25T09:44:26.263Z,27.84
2022-08-25T09:47:08.354Z,27.84
2022-08-25T09:49:46.632Z,27.88
2022-08-25T09:52:32.993Z,27.99
2022-08-25T09:55:34.413Z,28.10
2022-08-25T09:58:20.255Z,28.17
2022-08-25T10:01:22.572Z,28.14
2022-08-25T10:04:06.662Z,28.12
2022-08-25T10:06:47.293Z,28.12
2022-08-25T10:09:31.383Z,28.13
2022-08-25T10:12:01.500Z,27.91
2022-08-25T10:14:44.495Z,27.82
2022-08-25T10:17:24.847Z,27.93
2022-08-25T10:20:20.758Z,28.17
2022-08-25T10:22:51.153Z,28.20
2022-08-25T10:25:29.952Z,28.21
2022-08-25T10:28:15.529Z,28.21
2022-08-25T10:31:34.940Z,28.15
2022-08-25T10:34:22.018Z,28.14
2022-08-25T10:37:32.668Z,27.90
2022-08-25T10:40:19.410Z,27.91
2022-08-25T10:43:26.068Z,28.13
2022-08-25T10:46:36.930Z,28.33
2022-08-25T10:49:35.383Z,28.12
2022-08-25T10:52:36.715Z,28.42
2022-08-25T10:55:43.883Z,28.58
2022-08-25T10:58:24.180Z,28.60
2022-08-25T11:01:42.929Z,28.50
2022-08-25T11:04:26.211Z,28.51
2022-08-25T11:07:28.908Z,28.71
2022-08-25T11:10:03.073Z,28.51
2022-08-25T11:13:01.679Z,28.60
2022-08-25T11:16:13.706Z,28.70
2022-08-25T11:18:56.060Z,28.75
2022-08-25T11:21:51.543Z,28.77
2022-08-25T11:24:27.648Z,28.95
2022-08-25T11:26:57.172Z,28.96
2022-08-25T11:29:35.412Z,28.70
2022-08-25T11:32:04.889Z,28.74
2022-08-25T11:34:36.316Z,29.31
2022-08-25T11:37:25.824Z,29.18
2022-08-25T11:40:05.718Z,29.07
2022-08-25T11:43:11.679Z,28.89
2022-08-25T11:46:16.168Z,29.03
2022-08-25T11:49:21.707Z,29.14
2022-08-25T11:51:51.313Z,29.11
2022-08-25T11:54:42.972Z,29.05
2022-08-25T11:57:22.154Z,29.09
2022-08-25T11:59:57.672Z,29.21
2022-08-25T12:02:41.572Z,29.06
2022-08-25T12:05:18.971Z,29.08
2022-08-25T12:08:24.237Z,29.00
2022-08-25T12:11:10.602Z,28.84
2022-08-25T12:13:51.611Z,28.82
2022-08-25T12:16:41.993Z,28.77
2022-08-25T12:19:35.246Z,28.56
2022-08-25T12:22:03.565Z,28.63
2022-08-25T12:24:47.972Z,28.66
2022-08-25T12:27:39.757Z,28.50
2022-08-25T12:30:21.950Z,28.78
2022-08-25T12:33:22.447Z,29.10
2022-08-25T12:36:01.076Z,29.12
2022-08-25T12:38:43.598Z,29.18
2022-08-25T12:41:22.479Z,29.20
2022-08-25T12:44:08.925Z,29.27
2022-08-25T12:46:39.602Z,29.17
2022-08-25T12:49:34.810Z,29.00
2022-08-25T12:52:31.867Z,28.97
2022-08-25T12:55:06.099Z,28.87
2022-08-25T12:57:57.772Z,28.84
2022-08-25T13:00:36.432Z,28.86
2022-08-25T13:03:54.273Z,28.90
2022-08-25T13:07:02.909Z,28.72
2022-08-25T13:10:12.975Z,28.84
2022-08-25T13:12:57.952Z,28.84
2022-08-25T13:15:48.754Z,28.81
2022-08-25T13:18:35.001Z,28.88
2022-08-25T13:21:18.974Z,28.90
2022-08-25T13:23:53.973Z,28.94
2022-08-25T13:26:47.157Z,29.11
2022-08-25T13:29:22.861Z,29.54
2022-08-25T13:32:09.169Z,29.72
2022-08-25T13:34:42.537Z,29.67
2022-08-25T13:37:29.508Z,29.48
2022-08-25T13:40:26.775Z,29.42
2022-08-25T13:43:03.215Z,29.29
2022-08-25T13:45:41.536Z,29.22
2022-08-25T13:48:20.747Z,29.19
2022-08-25T13:50:54.177Z,29.32
2022-08-25T13:53:26.642Z,29.63
2022-08-25T13:56:03.407Z,29.51
2022-08-25T13:58:44.817Z,29.44
2022-08-25T14:01:48.110Z,29.19
2022-08-25T14:04:51.515Z,29.10
2022-08-25T14:07:22.810Z,29.11
2022-08-25T14:09:56.322Z,29.11
2022-08-25T14:12:36.265Z,29.17
2022-08-25T14:15:16.408Z,29.22
2022-08-25T14:18:01.068Z,29.36
2022-08-25T14:20:31.424Z,29.38
2022-08-25T14:23:16.137Z,29.27
2022-08-25T14:25:46.701Z,29.39
2022-08-25T14:28:18.927Z,29.42
2022-08-25T14:30:54.748Z,30.10
2022-08-25T14:33:28.090Z,30.26
2022-08-25T14:35:58.310Z,30.12
2022-08-25T14:38:25.983Z,29.71
2022-08-25T14:40:53.894Z,30.01
2022-08-25T14:43:23.689Z,30.74
2022-08-25T14:45:52.216Z,31.44
2022-08-25T14:48:45.616Z,31.69
2022-08-25T14:51:15.139Z,31.15
2022-08-25T14:53:44.113Z,31.33
2022-08-25T14:56:11.395Z,30.83
2022-08-25T14:58:51.225Z,30.98
2022-08-25T15:01:28.866Z,31.65
2022-08-25T15:04:23.350Z,31.62
2022-08-25T15:06:58.615Z,30.75
2022-08-25T15:09:26.675Z,30.30
2022-08-25T15:12:00.986Z,30.75
2022-08-25T15:14:28.828Z,30.21
2022-08-25T15:17:06.232Z,33.53
2022-08-25T15:19:36.597Z,35.19
2022-08-25T15:22:04.465Z,35.18
2022-08-25T15:24:37.379Z,35.24
2022-08-25T15:27:10.155Z,35.19
2022-08-25T15:29:37.755Z,35.16
2022-08-25T15:32:08.232Z,35.14
2022-08-25T15:34:36.964Z,35.01
2022-08-25T15:37:14.501Z,34.89
2022-08-25T15:39:44.594Z,34.86
2022-08-25T15:42:12.304Z,34.97
2022-08-25T15:44:40.136Z,34.95
2022-08-25T15:47:08.957Z,34.98
2022-08-25T15:49:40.124Z,34.96
2022-08-25T15:52:07.140Z,34.95
2022-08-25T15:54:34.200Z,34.37
2022-08-25T15:57:09.182Z,34.14
2022-08-25T15:59:40.274Z,33.99
2022-08-25T16:02:15.192Z,33.88
2022-08-25T16:04:42.738Z,33.57
2022-08-25T16:07:10.141Z,33.61
2022-08-25T16:09:41.736Z,33.46
2022-08-25T16:12:09.012Z,33.25
2022-08-25T16:14:38.604Z,33.26
2022-08-25T16:17:06.615Z,33.24
2022-08-25T16:19:33.696Z,33.17
2022-08-25T16:22:03.432Z,33.08
2022-08-25T16:24:34.530Z,32.93
2022-08-25T16:27:11.536Z,32.90
2022-08-25T16:29:43.939Z,32.78
2022-08-25T16:32:14.454Z,32.73
2022-08-25T16:34:44.327Z,32.56
2022-08-25T16:37:12.372Z,32.35
2022-08-25T16:39:44.128Z,32.23
2022-08-25T16:42:12.306Z,32.13
2022-08-25T16:44:39.964Z,31.88
2022-08-25T16:47:08.802Z,31.84
2022-08-25T16:49:36.520Z,31.82
2022-08-25T16:52:25.098Z,31.74
2022-08-25T16:55:15.081Z,31.61
2022-08-25T16:57:54.270Z,31.46
2022-08-25T17:00:28.300Z,31.22
2022-08-25T17:03:01.647Z,31.26
2022-08-25T17:05:29.716Z,31.17
2022-08-25T17:08:18.596Z,31.11
2022-08-25T17:10:46.727Z,31.06
2022-08-25T17:13:13.975Z,30.96
2022-08-25T17:15:45.323Z,30.90
2022-08-25T17:18:13.805Z,30.74
2022-08-25T17:20:44.745Z,30.72
2022-08-25T17:23:13.094Z,30.61
2022-08-25T17:25:43.135Z,30.61
2022-08-25T17:28:12.230Z,30.52
2022-08-25T17:30:40.758Z,30.45
2022-08-25T17:33:08.122Z,30.33
2022-08-25T17:35:48.599Z,30.29
2022-08-25T17:38:19.876Z,30.24
2022-08-25T17:40:48.184Z,30.12
2022-08-25T17:43:15.648Z,30.12
2022-08-25T17:45:42.754Z,29.96
2022-08-25T17:48:13.212Z,29.93
2022-08-25T17:50:41.419Z,29.83
2022-08-25T17:53:09.460Z,29.75
2022-08-25T17:55:38.077Z,29.64
2022-08-25T17:58:05.234Z,29.61
2022-08-25T18:00:32.919Z,29.51
2022-08-25T18:03:00.412Z,29.42
2022-08-25T18:05:27.973Z,29.36
2022-08-25T18:07:55.259Z,29.33
2022-08-25T18:10:22.896Z,29.26
2022-08-25T18:12:50.243Z,29.18
2022-08-25T18:15:18.059Z,29.06
2022-08-25T18:17:45.447Z,29.06
2022-08-25T18:20:14.468Z,28.96
2022-08-25T18:22:44.009Z,28.92
2022-08-25T18:25:14.676Z,28.78
2022-08-25T18:27:42.852Z,28.73
2022-08-25T18:30:11.049Z,28.69
2022-08-25T18:32:38.530Z,28.58
2022-08-25T18:35:07.316Z,28.50
2022-08-25T18:37:53.171Z,28.39
2022-08-25T18:40:23.530Z,28.34
2022-08-25T18:43:01.900Z,28.25
2022-08-25T18:45:40.617Z,28.18
2022-08-25T18:48:09.028Z,28.08
2022-08-25T18:50:39.498Z,27.97
2022-08-25T18:53:07.760Z,27.86
2022-08-25T18:55:36.387Z,27.82
2022-08-25T18:58:04.412Z,27.79
2022-08-25T19:00:32.628Z,27.70
2022-08-25T19:03:01.139Z,27.62
2022-08-25T19:05:33.394Z,27.53
2022-08-25T19:08:03.923Z,27.43
2022-08-25T19:10:32.420Z,27.34
2022-08-25T19:13:02.196Z,27.30
2022-08-25T19:15:37.655Z,27.17
2022-08-25T19:18:09.972Z,27.15
2022-08-25T19:20:37.972Z,27.07
2022-08-25T19:23:07.748Z,27.04
2022-08-25T19:25:41.394Z,26.98
2022-08-25T19:28:12.735Z,26.95
2022-08-25T19:30:49.754Z,26.88
2022-08-25T19:33:42.168Z,26.80
2022-08-25T19:36:08.818Z,26.67
2022-08-25T19:38:37.563Z,26.54
2022-08-25T19:41:13.983Z,26.49
2022-08-25T19:43:55.839Z,26.48
2022-08-25T19:46:32.281Z,26.49
2022-08-25T19:49:08.817Z,26.33
2022-08-25T19:51:39.827Z,26.12
2022-08-25T19:54:10.368Z,26.03
2022-08-25T19:56:43.918Z,25.97
2022-08-25T19:59:42.298Z,25.89
2022-08-25T20:02:15.948Z,25.88
2022-08-25T20:04:50.266Z,25.82
2022-08-25T20:07:21.734Z,25.74
2022-08-25T20:09:55.378Z,25.68
2022-08-25T20:12:25.142Z,25.64
2022-08-25T20:14:54.633Z,25.61
2022-08-25T20:17:26.173Z,25.53
2022-08-25T20:19:59.314Z,25.50
2022-08-25T20:22:31.543Z,25.40
2022-08-25T20:25:07.629Z,25.43
2022-08-25T20:27:50.779Z,25.38
2022-08-25T20:30:28.732Z,25.38
2022-08-25T20:32:58.096Z,25.34
2022-08-25T20:35:27.353Z,25.31
2022-08-25T20:37:56.836Z,25.28
2022-08-25T20:40:27.538Z,25.20
2022-08-25T20:42:57.007Z,25.22
2022-08-25T20:45:24.274Z,25.19
2022-08-25T20:47:51.657Z,25.20
2022-08-25T20:50:27.488Z,25.19
2022-08-25T20:52:56.894Z,25.14
2022-08-25T20:55:25.097Z,25.11
2022-08-25T20:57:53.746Z,25.07
2022-08-25T21:00:23.510Z,25.04
2022-08-25T21:02:52.945Z,25.00
2022-08-25T21:05:20.225Z,24.96
2022-08-25T21:07:47.384Z,24.93
2022-08-25T21:10:16.194Z,24.91
2022-08-25T21:12:45.069Z,24.87
2022-08-25T21:15:13.750Z,24.85
2022-08-25T21:17:49.642Z,24.83
2022-08-25T21:20:17.325Z,24.82
2022-08-25T21:22:44.361Z,24.77
2022-08-25T21:25:12.583Z,24.80
2022-08-25T21:27:39.832Z,24.74
2022-08-25T21:30:11.760Z,24.73
2022-08-25T21:32:38.757Z,24.70
2022-08-25T21:35:07.755Z,24.68
2022-08-25T21:37:35.092Z,24.63
2022-08-25T21:40:02.514Z,24.65
2022-08-25T21:42:34.418Z,24.62
2022-08-25T21:45:02.717Z,24.59
2022-08-25T21:47:29.836Z,24.53
2022-08-25T21:49:56.916Z,24.49
2022-08-25T21:52:23.979Z,24.51
2022-08-25T21:54:51.943Z,24.49
2022-08-25T21:57:23.722Z,24.43
2022-08-25T21:59:50.870Z,24.44
2022-08-25T22:02:22.578Z,24.40
2022-08-25T22:04:54.425Z,24.42
2022-08-25T22:07:24.475Z,24.37
2022-08-25T22:09:52.730Z,24.36
2022-08-25T22:12:19.824Z,24.36
2022-08-25T22:14:46.841Z,24.29
2022-08-25T22:17:14.108Z,24.30
2022-08-25T22:19:45.617Z,24.26
2022-08-25T22:22:13.847Z,24.25
2022-08-25T22:24:40.856Z,24.21
2022-08-25T22:27:12.088Z,24.23
2022-08-25T22:29:43.602Z,24.19
2022-08-25T22:32:13.727Z,24.17
2022-08-25T22:34:41.276Z,24.15
2022-08-25T22:37:10.787Z,24.08
2022-08-25T22:39:38.419Z,24.12
2022-08-25T22:42:07.544Z,24.10
2022-08-25T22:44:37.224Z,24.08
2022-08-25T22:47:04.577Z,24.03
2022-08-25T22:49:31.876Z,24.00
2022-08-25T22:51:58.849Z,24.01
2022-08-25T22:54:25.837Z,24.04
2022-08-25T22:59:22.600Z,23.97
2022-08-25T23:01:52.448Z,23.98
2022-08-25T23:04:19.752Z,23.95
2022-08-25T23:06:47.733Z,23.92
2022-08-25T23:09:14.863Z,23.92
2022-08-25T23:11:43.077Z,23.93
2022-08-25T23:14:11.453Z,23.89
2022-08-25T23:16:43.482Z,23.90
2022-08-25T23:19:13.989Z,23.87
2022-08-25T23:22:03.426Z,23.84
2022-08-25T23:24:31.832Z,23.83
2022-08-25T23:27:04.370Z,23.84
2022-08-25T23:29:34.345Z,23.80
2022-08-25T23:32:02.850Z,23.78
2022-08-25T23:34:30.299Z,23.77
2022-08-25T23:36:57.722Z,23.77
2022-08-25T23:39:25.364Z,23.74
2022-08-25T23:41:52.970Z,23.76
2022-08-25T23:44:22.850Z,23.74
2022-08-25T23:46:53.435Z,23.76
2022-08-25T23:49:23.492Z,23.74
2022-08-25T23:51:52.754Z,23.67
2022-08-25T23:54:21.356Z,23.72
2022-08-25T23:56:51.599Z,23.71
2022-08-25T23:59:24.394Z,23.70
